createdAt,value
2022-08-07T00:00:18.569Z,80.67
2022-08-07T00:01:44.471Z,80.91
2022-08-07T00:02:44.693Z,80.99
2022-08-07T00:03:47.544Z,80.91
2022-08-07T00:04:49.506Z,80.76
2022-08-07T00:05:53.294Z,80.80
2022-08-07T00:06:55.900Z,80.75
2022-08-07T00:08:03.980Z,80.94
2022-08-07T00:09:16.305Z,80.81
2022-08-07T00:10:26.599Z,80.77
2022-08-07T00:11:30.086Z,80.76
2022-08-07T00:12:35.159Z,80.89
2022-08-07T00:13:57.104Z,80.72
2022-08-07T00:15:01.255Z,80.56
2022-08-07T00:16:03.510Z,80.73
2022-08-07T00:17:06.612Z,80.73
2022-08-07T00:18:19.319Z,80.75
2022-08-07T00:19:26.035Z,80.62
2022-08-07T00:20:36.581Z,80.86
2022-08-07T00:21:57.312Z,81.18
2022-08-07T00:23:00.203Z,80.95
2022-08-07T00:24:02.037Z,80.99
2022-08-07T00:25:15.741Z,80.86
2022-08-07T00:26:48.793Z,80.99
2022-08-07T00:27:53.305Z,80.85
2022-08-07T00:28:57.002Z,81.00
2022-08-07T00:29:58.979Z,81.26
2022-08-07T00:31:01.568Z,81.92
2022-08-07T00:32:07.846Z,81.90
2022-08-07T00:33:10.234Z,82.04
2022-08-07T00:34:13.467Z,82.20
2022-08-07T00:35:21.101Z,82.78
2022-08-07T00:36:25.075Z,82.65
2022-08-07T00:37:30.950Z,82.92
2022-08-07T00:38:50.487Z,83.23
2022-08-07T00:39:54.806Z,83.09
2022-08-07T00:40:57.011Z,83.31
2022-08-07T00:42:02.064Z,83.71
2022-08-07T00:43:09.906Z,83.69
2022-08-07T00:44:12.558Z,83.67
2022-08-07T00:45:17.001Z,83.35
2022-08-07T00:46:19.398Z,82.90
2022-08-07T00:48:08.783Z,82.80
2022-08-07T00:48:43.516Z,82.38
2022-08-07T00:50:20.670Z,82.52
2022-08-07T00:51:08.601Z,82.47
2022-08-07T00:52:10.813Z,82.65
2022-08-07T00:53:13.836Z,82.58
2022-08-07T00:54:19.748Z,82.68
2022-08-07T00:56:00.172Z,82.51
2022-08-07T00:56:44.957Z,82.25
2022-08-07T00:57:55.957Z,82.23
2022-08-07T00:58:58.241Z,82.02
2022-08-07T01:00:00.606Z,82.39
2022-08-07T01:01:02.755Z,82.93
2022-08-07T01:02:14.103Z,82.99
2022-08-07T01:03:55.738Z,82.59
2022-08-07T01:04:52.813Z,82.61
2022-08-07T01:05:56.313Z,82.48
2022-08-07T01:06:58.203Z,82.28
2022-08-07T01:08:00.041Z,82.41
2022-08-07T01:09:02.845Z,82.45
2022-08-07T01:10:11.209Z,82.29
2022-08-07T01:12:09.036Z,82.20
2022-08-07T01:12:38.032Z,82.01
2022-08-07T01:13:41.228Z,81.88
2022-08-07T01:15:01.456Z,81.66
2022-08-07T01:16:06.888Z,81.76
2022-08-07T01:17:10.200Z,81.63
2022-08-07T01:18:17.017Z,81.79
2022-08-07T01:19:20.899Z,81.65
2022-08-07T01:20:35.813Z,81.69
2022-08-07T01:21:45.611Z,81.57
2022-08-07T01:23:00.760Z,81.54
2022-08-07T01:24:10.363Z,81.66
2022-08-07T01:25:53.528Z,81.86
2022-08-07T01:26:34.910Z,81.77
2022-08-07T01:27:37.243Z,81.65
2022-08-07T01:28:45.815Z,81.70
2022-08-07T01:29:48.345Z,81.95
2022-08-07T01:30:53.196Z,81.96
2022-08-07T01:31:59.488Z,81.92
2022-08-07T01:33:02.312Z,81.85
2022-08-07T01:34:06.007Z,81.87
2022-08-07T01:35:08.178Z,81.70
2022-08-07T01:36:12.276Z,81.69
2022-08-07T01:37:18.961Z,81.55
2022-08-07T01:38:25.873Z,81.73
2022-08-07T01:39:41.351Z,81.72
2022-08-07T01:40:49.908Z,81.83
2022-08-07T01:42:07.305Z,81.79
2022-08-07T01:43:16.893Z,81.67
2022-08-07T01:44:18.748Z,81.58
2022-08-07T01:45:22.793Z,81.35
2022-08-07T01:46:40.311Z,81.80
2022-08-07T01:48:17.556Z,82.21
2022-08-07T01:49:06.198Z,82.85
2022-08-07T01:50:08.295Z,82.87
2022-08-07T01:52:01.009Z,82.67
2022-08-07T01:52:34.855Z,82.41
2022-08-07T01:54:09.152Z,82.28
2022-08-07T01:55:02.042Z,82.27
2022-08-07T01:56:22.960Z,82.15
2022-08-07T01:58:05.602Z,82.04
2022-08-07T01:59:03.360Z,82.28
2022-08-07T02:00:13.236Z,82.36
2022-08-07T02:01:25.547Z,82.37
2022-08-07T02:03:18.118Z,82.29
2022-08-07T02:04:14.084Z,82.29
2022-08-07T02:05:43.320Z,81.92
2022-08-07T02:06:43.366Z,81.74
2022-08-07T02:07:51.730Z,81.86
2022-08-07T02:08:54.603Z,81.75
2022-08-07T02:09:58.271Z,81.86
2022-08-07T02:11:03.477Z,82.00
2022-08-07T02:12:17.612Z,81.79
2022-08-07T02:13:47.033Z,82.27
2022-08-07T02:14:50.444Z,82.55
2022-08-07T02:15:54.249Z,82.44
2022-08-07T02:16:57.272Z,82.32
2022-08-07T02:18:02.033Z,82.26
2022-08-07T02:19:05.498Z,82.10
2022-08-07T02:20:27.310Z,82.15
2022-08-07T02:21:56.604Z,82.22
2022-08-07T02:22:59.682Z,82.29
2022-08-07T02:24:02.684Z,82.06
2022-08-07T02:25:07.221Z,82.05
2022-08-07T02:26:32.809Z,81.94
2022-08-07T02:27:37.271Z,81.94
2022-08-07T02:28:43.663Z,81.88
2022-08-07T02:29:54.391Z,81.80
2022-08-07T02:30:58.065Z,82.13
2022-08-07T02:32:02.061Z,82.37
2022-08-07T02:33:09.469Z,82.25
2022-08-07T02:34:17.205Z,82.09
2022-08-07T02:35:20.506Z,82.26
2022-08-07T02:36:42.785Z,82.26
2022-08-07T02:37:48.419Z,81.92
2022-08-07T02:38:56.721Z,81.82
2022-08-07T02:40:02.427Z,81.69
2022-08-07T02:41:22.367Z,81.94
2022-08-07T02:42:35.709Z,81.63
2022-08-07T02:43:39.704Z,81.77
2022-08-07T02:44:48.021Z,81.39
2022-08-07T02:45:58.127Z,81.29
2022-08-07T02:47:02.942Z,81.29
2022-08-07T02:48:10.021Z,81.47
2022-08-07T02:49:12.322Z,81.44
2022-08-07T02:50:35.300Z,81.27
2022-08-07T02:51:49.680Z,81.46
2022-08-07T02:53:14.233Z,81.52
2022-08-07T02:54:17.101Z,81.77
2022-08-07T02:55:27.967Z,81.86
2022-08-07T02:56:44.396Z,81.80
2022-08-07T02:57:49.285Z,81.92
2022-08-07T02:58:55.159Z,81.68
2022-08-07T03:00:01.283Z,81.66
2022-08-07T03:01:16.005Z,81.73
2022-08-07T03:02:21.675Z,81.67
2022-08-07T03:03:25.238Z,81.78
2022-08-07T03:04:32.220Z,81.68
2022-08-07T03:05:37.112Z,81.76
2022-08-07T03:06:40.874Z,81.56
2022-08-07T03:08:07.608Z,81.64
2022-08-07T03:09:11.343Z,81.67
2022-08-07T03:10:14.534Z,81.95
2022-08-07T03:11:16.843Z,81.94
2022-08-07T03:12:21.973Z,81.86
2022-08-07T03:13:24.811Z,81.82
2022-08-07T03:14:28.687Z,81.77
2022-08-07T03:15:55.573Z,81.46
2022-08-07T03:16:52.827Z,81.66
2022-08-07T03:17:54.771Z,81.48
2022-08-07T03:18:56.874Z,81.63
2022-08-07T03:19:59.004Z,81.52
2022-08-07T03:21:01.954Z,81.68
2022-08-07T03:22:06.424Z,81.91
2022-08-07T03:23:18.898Z,82.25
2022-08-07T03:24:27.270Z,82.53
2022-08-07T03:25:32.493Z,82.72
2022-08-07T03:26:43.125Z,82.94
2022-08-07T03:28:08.848Z,82.97
2022-08-07T03:29:14.774Z,83.14
2022-08-07T03:30:17.114Z,83.10
2022-08-07T03:31:23.723Z,83.21
2022-08-07T03:32:29.849Z,83.07
2022-08-07T03:33:40.207Z,83.24
2022-08-07T03:34:47.292Z,82.76
2022-08-07T03:36:03.136Z,82.80
2022-08-07T03:37:12.167Z,82.39
2022-08-07T03:38:15.577Z,82.55
2022-08-07T03:39:18.278Z,82.53
2022-08-07T03:40:40.287Z,82.71
2022-08-07T03:41:50.711Z,82.19
2022-08-07T03:42:53.066Z,82.70
2022-08-07T03:43:57.085Z,83.03
2022-08-07T03:44:59.762Z,83.16
2022-08-07T03:46:04.133Z,83.52
2022-08-07T03:47:14.739Z,83.33
2022-08-07T03:48:16.775Z,82.97
2022-08-07T03:49:18.664Z,82.91
2022-08-07T03:50:23.064Z,82.85
2022-08-07T03:51:30.910Z,82.88
2022-08-07T03:52:48.852Z,82.51
2022-08-07T03:54:32.965Z,82.29
2022-08-07T03:55:13.193Z,82.50
2022-08-07T03:56:32.566Z,82.39
2022-08-07T03:58:34.531Z,82.28
2022-08-07T03:59:08.746Z,81.99
2022-08-07T04:00:14.977Z,81.98
2022-08-07T04:01:17.699Z,81.99
2022-08-07T04:02:20.941Z,82.09
2022-08-07T04:03:22.795Z,81.85
2022-08-07T04:04:25.176Z,81.93
2022-08-07T04:05:39.673Z,81.88
2022-08-07T04:06:44.473Z,81.88
2022-08-07T04:07:51.044Z,81.80
2022-08-07T04:08:54.480Z,82.02
2022-08-07T04:09:58.185Z,81.99
2022-08-07T04:12:24.146Z,82.11
2022-08-07T04:12:28.914Z,82.43
2022-08-07T04:14:09.981Z,82.62
2022-08-07T04:14:53.877Z,82.70
2022-08-07T04:15:58.362Z,82.85
2022-08-07T04:17:00.256Z,83.03
2022-08-07T04:18:57.613Z,82.83
2022-08-07T04:19:51.065Z,82.68
2022-08-07T04:20:54.836Z,82.63
2022-08-07T04:21:59.306Z,82.54
2022-08-07T04:23:06.634Z,82.46
2022-08-07T04:24:10.830Z,82.40
2022-08-07T04:25:39.130Z,82.22
2022-08-07T04:26:43.736Z,82.14
2022-08-07T04:27:59.121Z,82.13
2022-08-07T04:29:03.019Z,82.12
2022-08-07T04:30:11.923Z,82.04
2022-08-07T04:32:02.306Z,82.09
2022-08-07T04:32:48.454Z,82.27
2022-08-07T04:34:00.695Z,82.32
2022-08-07T04:35:05.381Z,82.21
2022-08-07T04:36:10.850Z,82.08
2022-08-07T04:37:20.223Z,82.48
2022-08-07T04:38:22.425Z,82.69
2022-08-07T04:39:26.290Z,82.85
2022-08-07T04:40:31.293Z,82.82
2022-08-07T04:41:36.784Z,82.71
2022-08-07T04:42:38.971Z,82.40
2022-08-07T04:44:13.091Z,82.24
2022-08-07T04:45:09.039Z,82.34
2022-08-07T04:46:20.088Z,82.18
2022-08-07T04:47:57.357Z,81.95
2022-08-07T04:49:17.779Z,82.15
2022-08-07T04:50:22.282Z,82.34
2022-08-07T04:51:45.653Z,82.00
2022-08-07T04:52:59.706Z,81.87
2022-08-07T04:54:11.369Z,81.88
2022-08-07T04:58:09.596Z,82.08
2022-08-07T04:58:14.162Z,82.23
2022-08-07T04:58:49.603Z,82.41
2022-08-07T05:00:11.170Z,83.19
2022-08-07T05:01:32.629Z,83.10
2022-08-07T05:02:43.564Z,83.08
2022-08-07T05:04:06.375Z,83.13
2022-08-07T05:05:54.473Z,83.53
2022-08-07T05:06:51.805Z,83.28
2022-08-07T05:07:55.604Z,83.33
2022-08-07T05:09:03.363Z,83.11
2022-08-07T05:10:05.253Z,82.82
2022-08-07T05:11:58.454Z,82.35
2022-08-07T05:14:53.404Z,82.37
2022-08-07T05:14:55.449Z,82.30
2022-08-07T05:16:00.225Z,82.39
2022-08-07T05:17:11.881Z,82.14
2022-08-07T05:18:29.957Z,82.47
2022-08-07T05:19:45.153Z,82.35
2022-08-07T05:20:50.264Z,82.36
2022-08-07T05:21:59.429Z,82.12
2022-08-07T05:23:16.142Z,82.21
2022-08-07T05:24:19.356Z,82.07
2022-08-07T05:25:54.424Z,82.02
2022-08-07T05:26:52.450Z,82.06
2022-08-07T05:28:03.202Z,81.88
2022-08-07T05:29:20.574Z,82.02
2022-08-07T05:30:32.654Z,81.89
2022-08-07T05:31:39.553Z,81.99
2022-08-07T05:32:41.730Z,81.86
2022-08-07T05:34:01.004Z,81.84
2022-08-07T05:35:08.878Z,81.89
2022-08-07T05:36:12.056Z,81.96
2022-08-07T05:37:15.680Z,81.89
2022-08-07T05:39:00.839Z,81.81
2022-08-07T05:40:16.829Z,81.86
2022-08-07T05:41:15.628Z,81.93
2022-08-07T05:42:34.346Z,81.65
2022-08-07T05:43:50.161Z,81.74
2022-08-07T05:45:14.558Z,81.85
2022-08-07T05:46:23.454Z,81.82
2022-08-07T05:47:38.553Z,81.87
2022-08-07T05:48:59.011Z,81.61
2022-08-07T05:50:02.386Z,81.66
2022-08-07T05:51:04.482Z,81.44
2022-08-07T05:52:06.476Z,81.55
2022-08-07T05:54:12.472Z,81.60
2022-08-07T05:54:53.709Z,81.63
2022-08-07T05:56:03.452Z,81.88
2022-08-07T05:57:08.617Z,82.04
2022-08-07T05:58:12.068Z,82.17
2022-08-07T05:59:15.549Z,82.20
2022-08-07T06:00:18.008Z,82.79
2022-08-07T06:01:20.456Z,82.78
2022-08-07T06:02:28.804Z,82.92
2022-08-07T06:03:53.265Z,82.74
2022-08-07T06:04:55.433Z,83.38
2022-08-07T06:05:58.187Z,83.14
2022-08-07T06:07:04.570Z,83.17
2022-08-07T06:08:21.561Z,82.92
2022-08-07T06:10:03.833Z,82.76
2022-08-07T06:10:51.411Z,82.91
2022-08-07T06:11:58.112Z,82.72
2022-08-07T06:13:00.659Z,83.51
2022-08-07T06:14:12.437Z,83.67
2022-08-07T06:15:39.127Z,83.45
2022-08-07T06:16:50.207Z,82.93
2022-08-07T06:17:54.999Z,83.07
2022-08-07T06:18:58.095Z,82.80
2022-08-07T06:20:04.176Z,82.77
2022-08-07T06:22:14.716Z,82.45
2022-08-07T06:22:29.338Z,82.06
2022-08-07T06:24:38.526Z,82.08
2022-08-07T06:24:58.480Z,82.13
2022-08-07T06:26:04.263Z,81.75
2022-08-07T06:27:06.449Z,81.56
2022-08-07T06:28:14.174Z,81.16
2022-08-07T06:29:16.685Z,81.31
2022-08-07T06:30:32.145Z,81.21
2022-08-07T06:31:49.714Z,81.46
2022-08-07T06:32:52.591Z,81.34
2022-08-07T06:33:54.905Z,81.32
2022-08-07T06:34:56.757Z,81.49
2022-08-07T06:36:12.103Z,81.75
2022-08-07T06:37:17.262Z,81.47
2022-08-07T06:38:22.633Z,81.33
2022-08-07T06:40:16.867Z,81.55
2022-08-07T06:40:55.307Z,81.11
2022-08-07T06:42:03.614Z,81.72
2022-08-07T06:43:07.198Z,81.83
2022-08-07T06:44:24.382Z,81.76
2022-08-07T06:45:26.305Z,81.49
2022-08-07T06:46:35.031Z,81.27
2022-08-07T06:47:48.032Z,81.27
2022-08-07T06:48:59.127Z,81.11
2022-08-07T06:50:01.188Z,81.13
2022-08-07T06:51:08.251Z,80.98
2022-08-07T06:52:13.005Z,80.84
2022-08-07T06:53:18.671Z,81.36
2022-08-07T06:55:31.676Z,81.53
2022-08-07T06:56:02.143Z,81.78
2022-08-07T06:57:04.875Z,81.42
2022-08-07T06:58:09.529Z,81.65
2022-08-07T07:00:14.595Z,81.33
2022-08-07T07:00:39.537Z,81.71
2022-08-07T07:01:50.585Z,81.90
2022-08-07T07:02:54.463Z,81.58
2022-08-07T07:04:16.404Z,81.54
2022-08-07T07:06:03.947Z,81.14
2022-08-07T07:07:00.507Z,81.01
2022-08-07T07:08:04.151Z,80.74
2022-08-07T07:09:23.327Z,80.65
2022-08-07T07:10:29.971Z,80.40
2022-08-07T07:12:07.646Z,79.87
2022-08-07T07:12:59.005Z,79.28
2022-08-07T07:14:08.304Z,78.91
2022-08-07T07:15:26.334Z,78.91
2022-08-07T07:16:45.247Z,78.68
2022-08-07T07:17:52.566Z,78.62
2022-08-07T07:18:59.776Z,78.60
2022-08-07T07:20:12.169Z,78.43
2022-08-07T07:21:20.010Z,78.60
2022-08-07T07:22:36.008Z,78.23
2022-08-07T07:24:09.210Z,77.94
2022-08-07T07:26:30.660Z,77.81
2022-08-07T07:26:36.883Z,77.50
2022-08-07T07:28:01.920Z,77.11
2022-08-07T07:29:39.887Z,77.34
2022-08-07T07:30:38.721Z,77.10
2022-08-07T07:31:44.596Z,77.08
2022-08-07T07:32:48.717Z,76.11
2022-08-07T07:33:57.178Z,76.54
2022-08-07T07:35:00.680Z,76.32
2022-08-07T07:36:12.861Z,76.37
2022-08-07T07:37:45.162Z,76.33
2022-08-07T07:38:39.356Z,76.21
2022-08-07T07:39:52.027Z,76.25
2022-08-07T07:41:02.216Z,76.00
2022-08-07T07:42:13.287Z,75.98
2022-08-07T07:43:18.674Z,75.98
2022-08-07T07:44:29.321Z,76.24
2022-08-07T07:46:39.905Z,76.10
2022-08-07T07:47:04.277Z,76.30
2022-08-07T07:48:24.106Z,76.48
2022-08-07T07:50:33.517Z,76.18
2022-08-07T07:51:02.224Z,76.40
2022-08-07T07:52:04.109Z,75.78
2022-08-07T07:53:20.535Z,76.16
2022-08-07T07:54:26.619Z,76.34
2022-08-07T07:55:37.662Z,76.11
2022-08-07T07:56:48.861Z,75.70
2022-08-07T07:57:58.194Z,75.93
2022-08-07T07:59:01.589Z,75.93
2022-08-07T08:00:04.506Z,75.74
2022-08-07T08:02:02.513Z,75.56
2022-08-07T08:02:34.225Z,75.26
2022-08-07T08:04:10.736Z,74.93
2022-08-07T08:05:02.274Z,75.02
2022-08-07T08:06:06.818Z,74.57
2022-08-07T08:07:14.025Z,74.34
2022-08-07T08:08:35.417Z,74.40
2022-08-07T08:09:52.359Z,74.50
2022-08-07T08:11:02.821Z,74.79
2022-08-07T08:12:06.172Z,74.73
2022-08-07T08:13:10.395Z,74.68
2022-08-07T08:14:20.239Z,74.06
2022-08-07T08:15:27.801Z,74.38
2022-08-07T08:16:51.465Z,74.37
2022-08-07T08:18:36.481Z,74.31
2022-08-07T08:20:16.319Z,74.06
2022-08-07T08:20:41.005Z,74.55
2022-08-07T08:22:07.842Z,74.17
2022-08-07T08:23:29.201Z,74.24
2022-08-07T08:25:04.759Z,74.21
2022-08-07T08:26:37.416Z,74.17
2022-08-07T08:27:40.354Z,73.66
2022-08-07T08:28:46.340Z,73.55
2022-08-07T08:29:55.663Z,73.99
2022-08-07T08:30:59.297Z,73.78
2022-08-07T08:32:18.567Z,73.97
2022-08-07T08:33:28.739Z,74.23
2022-08-07T08:34:35.894Z,74.20
2022-08-07T08:35:39.594Z,73.65
2022-08-07T08:36:56.179Z,73.18
2022-08-07T08:38:03.558Z,73.43
2022-08-07T08:39:09.200Z,73.47
2022-08-07T08:40:28.624Z,73.44
2022-08-07T08:41:57.690Z,72.49
2022-08-07T08:43:18.000Z,72.74
2022-08-07T08:44:29.459Z,72.95
2022-08-07T08:45:59.059Z,73.34
2022-08-07T08:47:10.018Z,73.35
2022-08-07T08:48:22.233Z,73.13
2022-08-07T08:50:02.126Z,73.04
2022-08-07T08:50:58.948Z,72.76
2022-08-07T08:52:13.968Z,71.90
2022-08-07T08:53:29.477Z,71.20
2022-08-07T08:54:48.407Z,71.37
2022-08-07T08:55:58.804Z,71.40
2022-08-07T08:57:06.455Z,71.64
2022-08-07T08:58:29.316Z,71.37
2022-08-07T08:59:41.789Z,72.29
2022-08-07T09:00:52.828Z,71.75
2022-08-07T09:02:13.316Z,71.41
2022-08-07T09:03:21.305Z,71.95
2022-08-07T09:04:47.196Z,71.96
2022-08-07T09:05:56.104Z,71.74
2022-08-07T09:07:01.479Z,71.62
2022-08-07T09:08:11.680Z,71.44
2022-08-07T09:09:33.324Z,71.51
2022-08-07T09:10:45.184Z,71.68
2022-08-07T09:12:20.118Z,71.68
2022-08-07T09:13:58.483Z,71.22
2022-08-07T09:15:00.860Z,70.90
2022-08-07T09:16:29.861Z,71.12
2022-08-07T09:17:33.980Z,70.41
2022-08-07T09:19:51.168Z,70.86
2022-08-07T09:20:58.536Z,70.81
2022-08-07T09:22:39.399Z,70.98
2022-08-07T09:24:33.733Z,70.79
2022-08-07T09:25:14.767Z,70.41
2022-08-07T09:26:28.167Z,70.27
2022-08-07T09:27:38.304Z,70.47
2022-08-07T09:30:02.250Z,68.60
2022-08-07T09:30:25.580Z,69.64
2022-08-07T09:31:38.597Z,69.49
2022-08-07T09:32:59.197Z,69.60
2022-08-07T09:34:27.342Z,69.23
2022-08-07T09:36:03.238Z,68.78
2022-08-07T09:37:15.011Z,69.66
2022-08-07T09:38:40.104Z,69.27
2022-08-07T09:39:59.471Z,69.03
2022-08-07T09:41:04.276Z,69.28
2022-08-07T09:42:25.301Z,69.42
2022-08-07T09:44:05.570Z,69.76
2022-08-07T09:47:27.625Z,69.30
2022-08-07T09:47:52.426Z,69.25
2022-08-07T09:48:19.066Z,69.60
2022-08-07T09:50:00.977Z,69.91
2022-08-07T09:51:26.094Z,70.06
2022-08-07T09:52:52.522Z,70.12
2022-08-07T09:54:02.664Z,69.72
2022-08-07T09:55:29.840Z,69.84
2022-08-07T09:56:41.907Z,69.78
2022-08-07T09:58:02.556Z,68.67
2022-08-07T09:59:14.607Z,68.08
2022-08-07T10:00:18.995Z,68.62
2022-08-07T10:01:52.185Z,68.68
2022-08-07T10:04:03.694Z,68.70
2022-08-07T10:04:53.379Z,68.51
2022-08-07T10:06:05.390Z,68.81
2022-08-07T10:07:24.260Z,68.13
2022-08-07T10:08:27.990Z,68.86
2022-08-07T10:09:59.192Z,67.40
2022-08-07T10:11:17.102Z,67.68
2022-08-07T10:12:54.622Z,67.34
2022-08-07T10:14:01.949Z,67.61
2022-08-07T10:15:37.864Z,68.08
2022-08-07T10:17:01.111Z,67.88
2022-08-07T10:18:06.761Z,67.83
2022-08-07T10:19:19.809Z,67.78
2022-08-07T10:20:30.606Z,67.93
2022-08-07T10:22:12.196Z,68.26
2022-08-07T10:24:05.007Z,68.71
2022-08-07T10:24:51.419Z,68.40
2022-08-07T10:25:57.985Z,68.29
2022-08-07T10:27:20.528Z,68.30
2022-08-07T10:28:39.881Z,68.65
2022-08-07T10:30:06.349Z,67.89
2022-08-07T10:31:22.456Z,68.31
2022-08-07T10:32:52.735Z,67.60
2022-08-07T10:34:05.973Z,66.44
2022-08-07T10:35:20.192Z,67.35
2022-08-07T10:36:40.591Z,67.21
2022-08-07T10:38:09.850Z,66.72
2022-08-07T10:39:25.723Z,66.52
2022-08-07T10:41:04.354Z,66.42
2022-08-07T10:42:31.283Z,66.66
2022-08-07T10:44:02.304Z,65.95
2022-08-07T10:45:19.595Z,65.99
2022-08-07T10:46:53.860Z,66.30
2022-08-07T10:48:08.281Z,66.32
2022-08-07T10:49:16.389Z,65.25
2022-08-07T10:50:26.598Z,65.54
2022-08-07T10:52:01.441Z,64.30
2022-08-07T10:53:08.864Z,65.95
2022-08-07T10:54:18.164Z,66.08
2022-08-07T10:55:38.639Z,66.15
2022-08-07T10:56:54.523Z,65.24
2022-08-07T10:57:56.560Z,64.74
2022-08-07T10:59:21.281Z,65.41
2022-08-07T11:00:36.986Z,65.15
2022-08-07T11:01:51.393Z,64.86
2022-08-07T11:03:20.472Z,65.70
2022-08-07T11:04:42.195Z,65.50
2022-08-07T11:05:53.259Z,65.81
2022-08-07T11:07:59.045Z,65.30
2022-08-07T11:09:00.032Z,64.35
2022-08-07T11:10:07.042Z,65.08
2022-08-07T11:11:20.834Z,65.43
2022-08-07T11:12:43.467Z,64.30
2022-08-07T11:14:45.144Z,64.64
2022-08-07T11:15:18.165Z,65.35
2022-08-07T11:16:40.212Z,64.63
2022-08-07T11:17:48.433Z,64.72
2022-08-07T11:19:06.924Z,64.09
2022-08-07T11:20:18.161Z,64.89
2022-08-07T11:21:27.504Z,64.76
2022-08-07T11:22:51.701Z,64.97
2022-08-07T11:24:11.860Z,64.84
2022-08-07T11:25:16.875Z,65.09
2022-08-07T11:26:27.212Z,62.52
2022-08-07T11:28:02.513Z,63.42
2022-08-07T11:29:13.220Z,63.72
2022-08-07T11:30:41.955Z,62.89
2022-08-07T11:31:47.193Z,62.65
2022-08-07T11:33:01.898Z,63.30
2022-08-07T11:34:16.308Z,62.82
2022-08-07T11:35:26.730Z,63.68
2022-08-07T11:36:47.372Z,63.99
2022-08-07T11:38:12.457Z,63.63
2022-08-07T11:39:20.916Z,62.57
2022-08-07T11:40:54.259Z,63.59
2022-08-07T11:42:07.885Z,63.48
2022-08-07T11:43:54.587Z,62.01
2022-08-07T11:44:58.983Z,62.19
2022-08-07T11:46:16.931Z,62.56
2022-08-07T11:47:55.903Z,62.37
2022-08-07T11:49:50.316Z,62.22
2022-08-07T11:50:57.974Z,62.29
2022-08-07T11:52:19.669Z,62.19
2022-08-07T11:54:01.255Z,61.37
2022-08-07T11:56:15.726Z,62.79
2022-08-07T11:56:59.152Z,63.08
2022-08-07T11:58:04.025Z,63.08
2022-08-07T12:00:11.140Z,62.52
2022-08-07T12:01:02.654Z,62.71
2022-08-07T12:02:30.447Z,62.80
2022-08-07T12:03:46.396Z,62.33
2022-08-07T12:04:48.474Z,62.89
2022-08-07T12:06:36.303Z,62.66
2022-08-07T12:07:38.891Z,61.98
2022-08-07T12:08:52.839Z,60.93
2022-08-07T12:10:05.962Z,61.89
2022-08-07T12:11:21.128Z,61.54
2022-08-07T12:12:29.210Z,62.07
2022-08-07T12:13:47.811Z,62.17
2022-08-07T12:15:00.604Z,61.94
2022-08-07T12:16:11.471Z,61.59
2022-08-07T12:17:20.374Z,62.35
2022-08-07T12:18:45.451Z,62.78
2022-08-07T12:20:06.951Z,62.92
2022-08-07T12:21:14.948Z,62.92
2022-08-07T12:22:39.083Z,63.17
2022-08-07T12:24:07.690Z,63.72
2022-08-07T12:26:05.473Z,62.64
2022-08-07T12:27:04.259Z,63.13
2022-08-07T12:28:31.713Z,63.91
2022-08-07T12:29:42.316Z,64.53
2022-08-07T12:30:47.014Z,64.38
2022-08-07T12:32:04.133Z,64.51
2022-08-07T12:33:28.297Z,64.82
2022-08-07T12:34:34.961Z,65.28
2022-08-07T12:35:37.420Z,65.40
2022-08-07T12:36:41.271Z,65.77
2022-08-07T12:38:11.596Z,65.81
2022-08-07T12:39:44.160Z,66.14
2022-08-07T12:40:51.029Z,66.12
2022-08-07T12:41:54.799Z,66.52
2022-08-07T12:43:01.311Z,66.34
2022-08-07T12:44:17.355Z,66.38
2022-08-07T12:45:21.538Z,66.16
2022-08-07T12:46:32.309Z,66.19
2022-08-07T12:47:37.484Z,66.28
2022-08-07T12:48:53.038Z,66.30
2022-08-07T12:50:34.372Z,66.53
2022-08-07T12:51:51.131Z,66.59
2022-08-07T12:53:05.196Z,66.67
2022-08-07T12:54:37.904Z,66.72
2022-08-07T12:56:02.428Z,66.83
2022-08-07T12:57:09.346Z,66.59
2022-08-07T12:58:14.978Z,66.63
2022-08-07T12:59:20.310Z,66.97
2022-08-07T13:00:32.553Z,66.95
2022-08-07T13:01:43.302Z,66.58
2022-08-07T13:02:47.135Z,66.81
2022-08-07T13:04:04.708Z,66.73
2022-08-07T13:06:02.950Z,66.52
2022-08-07T13:07:01.094Z,66.79
2022-08-07T13:08:14.231Z,66.98
2022-08-07T13:10:21.618Z,66.72
2022-08-07T13:11:08.595Z,66.63
2022-08-07T13:12:29.132Z,66.51
2022-08-07T13:13:48.262Z,66.45
2022-08-07T13:14:59.468Z,66.74
2022-08-07T13:16:01.219Z,66.66
2022-08-07T13:17:03.048Z,66.87
2022-08-07T13:18:08.836Z,66.33
2022-08-07T13:19:18.184Z,66.49
2022-08-07T13:20:27.817Z,67.40
2022-08-07T13:21:37.185Z,67.46
2022-08-07T13:24:01.654Z,68.61
2022-08-07T13:24:52.256Z,68.48
2022-08-07T13:26:00.863Z,68.37
2022-08-07T13:27:23.110Z,68.44
2022-08-07T13:28:41.825Z,68.34
2022-08-07T13:30:04.501Z,68.36
2022-08-07T13:31:13.129Z,68.42
2022-08-07T13:32:31.877Z,68.28
2022-08-07T13:34:32.621Z,67.87
2022-08-07T13:35:59.716Z,67.49
2022-08-07T13:37:19.859Z,67.29
2022-08-07T13:38:30.493Z,67.33
2022-08-07T13:40:33.117Z,67.00
2022-08-07T13:41:08.479Z,67.54
2022-08-07T13:42:21.417Z,68.08
2022-08-07T13:43:27.747Z,68.24
2022-08-07T13:44:34.627Z,68.55
2022-08-07T13:46:11.801Z,68.27
2022-08-07T13:47:04.807Z,68.59
2022-08-07T13:48:27.431Z,68.99
2022-08-07T13:50:33.800Z,69.16
2022-08-07T13:51:27.026Z,69.25
2022-08-07T13:52:32.444Z,69.39
2022-08-07T13:54:01.511Z,69.27
2022-08-07T13:55:10.741Z,69.18
2022-08-07T13:56:18.173Z,69.09
2022-08-07T13:57:25.668Z,69.20
2022-08-07T13:59:00.310Z,68.86
2022-08-07T14:00:04.090Z,68.62
2022-08-07T14:01:13.679Z,69.09
2022-08-07T14:02:21.723Z,69.55
2022-08-07T14:04:05.482Z,69.48
2022-08-07T14:05:08.065Z,69.34
2022-08-07T14:06:11.921Z,69.57
2022-08-07T14:07:14.267Z,68.91
2022-08-07T14:08:18.357Z,69.14
2022-08-07T14:10:05.150Z,69.46
2022-08-07T14:11:01.837Z,69.17
2022-08-07T14:12:27.544Z,68.77
2022-08-07T14:13:33.839Z,68.65
2022-08-07T14:15:01.964Z,68.77
2022-08-07T14:16:05.612Z,68.94
2022-08-07T14:18:12.097Z,68.60
2022-08-07T14:18:57.329Z,68.76
2022-08-07T14:20:43.458Z,69.23
2022-08-07T14:22:03.294Z,68.96
2022-08-07T14:23:09.308Z,68.78
2022-08-07T14:24:15.796Z,68.40
2022-08-07T14:25:18.192Z,68.20
2022-08-07T14:26:30.353Z,67.93
2022-08-07T14:28:12.224Z,68.35
2022-08-07T14:30:06.482Z,67.80
2022-08-07T14:30:33.350Z,68.02
2022-08-07T14:31:43.431Z,67.77
2022-08-07T14:33:00.329Z,67.38
2022-08-07T14:34:02.382Z,67.47
2022-08-07T14:35:43.190Z,67.56
2022-08-07T14:36:40.922Z,67.93
2022-08-07T14:38:05.821Z,68.10
2022-08-07T14:39:08.890Z,67.13
2022-08-07T14:40:26.346Z,67.60
2022-08-07T14:41:33.910Z,67.21
2022-08-07T14:43:55.128Z,67.36
2022-08-07T14:44:16.830Z,66.63
2022-08-07T14:45:22.413Z,66.70
2022-08-07T14:46:30.559Z,66.90
2022-08-07T14:47:34.212Z,66.49
2022-08-07T14:48:37.381Z,66.01
2022-08-07T14:51:05.461Z,65.64
2022-08-07T14:52:10.510Z,65.75
2022-08-07T14:53:12.745Z,65.91
2022-08-07T14:55:56.250Z,66.30
2022-08-07T14:57:04.101Z,65.04
2022-08-07T14:58:06.554Z,65.51
2022-08-07T15:00:05.438Z,66.03
2022-08-07T15:00:51.650Z,66.05
2022-08-07T15:01:54.564Z,66.06
2022-08-07T15:03:16.470Z,66.57
2022-08-07T15:04:25.188Z,65.84
2022-08-07T15:05:30.341Z,66.56
2022-08-07T15:06:34.077Z,66.45
2022-08-07T15:07:47.251Z,66.58
2022-08-07T15:08:55.667Z,66.48
2022-08-07T15:10:04.677Z,66.21
2022-08-07T15:11:10.082Z,66.38
2022-08-07T15:12:25.978Z,66.28
2022-08-07T15:13:52.558Z,65.88
2022-08-07T15:15:07.856Z,65.88
2022-08-07T15:16:14.623Z,66.06
2022-08-07T15:17:20.384Z,65.98
2022-08-07T15:18:40.242Z,66.04
2022-08-07T15:21:58.595Z,65.08
2022-08-07T15:25:13.162Z,65.55
2022-08-07T15:25:40.914Z,65.38
2022-08-07T15:26:46.951Z,65.36
2022-08-07T15:28:26.572Z,65.65
2022-08-07T15:32:02.792Z,64.96
2022-08-07T15:33:19.691Z,65.18
2022-08-07T15:34:22.699Z,65.60
2022-08-07T15:37:03.852Z,65.49
2022-08-07T15:38:29.725Z,65.03
2022-08-07T15:39:57.275Z,65.36
2022-08-07T15:42:45.114Z,65.17
2022-08-07T15:42:45.602Z,65.59
2022-08-07T15:43:58.730Z,65.46
2022-08-07T15:45:02.127Z,65.01
2022-08-07T15:46:32.472Z,65.06
2022-08-07T15:48:01.468Z,65.22
2022-08-07T15:49:13.293Z,65.68
2022-08-07T15:50:37.656Z,65.84
2022-08-07T15:53:05.897Z,65.31
2022-08-07T15:54:12.222Z,65.39
2022-08-07T15:55:15.566Z,65.49
2022-08-07T15:56:18.287Z,65.37
2022-08-07T15:57:39.165Z,65.57
2022-08-07T15:58:52.069Z,65.37